createdAt,value
2022-09-09T00:02:27.474Z,4.38
2022-09-09T00:05:37.725Z,4.72
2022-09-09T00:08:58.280Z,4.10
2022-09-09T00:12:11.971Z,7.10
2022-09-09T00:15:20.591Z,4.13
2022-09-09T00:18:48.999Z,4.28
2022-09-09T00:22:15.087Z,4.22
2022-09-09T00:25:27.403Z,4.43
2022-09-09T00:28:33.336Z,5.00
2022-09-09T00:31:38.326Z,4.85
2022-09-09T00:34:58.892Z,4.30
2022-09-09T00:38:17.998Z,4.57
2022-09-09T00:41:38.964Z,5.05
2022-09-09T00:45:13.256Z,5.35
2022-09-09T00:48:15.407Z,4.75
2022-09-09T00:51:40.607Z,4.90
2022-09-09T00:54:45.908Z,4.85
2022-09-09T00:57:53.255Z,5.72
2022-09-09T01:01:09.805Z,4.43
2022-09-09T01:04:21.929Z,5.25
2022-09-09T01:07:24.741Z,4.85
2022-09-09T01:10:47.258Z,5.32
2022-09-09T01:14:01.515Z,5.35
2022-09-09T01:17:28.340Z,5.07
2022-09-09T01:21:09.815Z,4.45
2022-09-09T01:24:40.103Z,4.97
2022-09-09T01:28:06.256Z,5.32
2022-09-09T01:31:12.692Z,6.72
2022-09-09T01:34:19.343Z,5.07
2022-09-09T01:37:21.612Z,5.00
2022-09-09T01:40:25.317Z,3.67
2022-09-09T01:43:29.375Z,5.60
2022-09-09T01:46:32.406Z,4.50
2022-09-09T01:49:36.131Z,4.07
2022-09-09T01:52:49.374Z,6.43
2022-09-09T01:56:12.770Z,6.22
2022-09-09T01:59:46.413Z,6.03
2022-09-09T02:03:09.837Z,7.15
2022-09-09T02:06:38.789Z,3.75
2022-09-09T02:10:02.558Z,4.13
2022-09-09T02:13:20.986Z,4.60
2022-09-09T02:16:51.981Z,6.18
2022-09-09T02:20:22.931Z,6.35
2022-09-09T02:23:30.855Z,4.43
2022-09-09T02:26:37.675Z,5.20
2022-09-09T02:29:44.154Z,5.75
2022-09-09T02:32:50.038Z,4.30
2022-09-09T02:35:55.192Z,4.60
2022-09-09T02:38:59.311Z,4.20
2022-09-09T02:42:09.291Z,3.00
2022-09-09T02:45:18.673Z,3.85
2022-09-09T02:48:32.898Z,4.25
2022-09-09T02:51:50.128Z,4.90
2022-09-09T02:54:58.854Z,4.22
2022-09-09T02:58:07.062Z,3.92
2022-09-09T03:01:10.537Z,3.87
2022-09-09T03:04:12.933Z,4.85
2022-09-09T03:07:15.199Z,5.00
2022-09-09T03:10:18.735Z,4.88
2022-09-09T03:13:20.877Z,4.30
2022-09-09T03:16:24.494Z,3.75
2022-09-09T03:19:29.030Z,3.83
2022-09-09T03:22:31.295Z,4.25
2022-09-09T03:25:36.702Z,3.65
2022-09-09T03:28:38.806Z,3.88
2022-09-09T03:31:42.119Z,4.63
2022-09-09T03:34:44.881Z,3.15
2022-09-09T03:37:49.260Z,4.72
2022-09-09T03:40:58.324Z,4.10
2022-09-09T03:44:01.407Z,5.03
2022-09-09T03:47:07.923Z,3.95
2022-09-09T03:50:11.737Z,3.50
2022-09-09T03:53:21.361Z,3.78
2022-09-09T03:56:23.727Z,3.45
2022-09-09T03:59:26.602Z,5.35
2022-09-09T04:02:28.953Z,3.67
2022-09-09T04:05:31.619Z,3.53
2022-09-09T04:08:34.531Z,4.47
2022-09-09T04:11:37.995Z,5.25
2022-09-09T04:14:40.323Z,5.00
2022-09-09T04:17:43.575Z,5.15
2022-09-09T04:20:48.741Z,3.72
2022-09-09T04:23:52.391Z,3.72
2022-09-09T04:26:55.342Z,5.38
2022-09-09T04:29:58.459Z,4.65
2022-09-09T04:33:02.382Z,3.83
2022-09-09T04:36:04.772Z,3.50
2022-09-09T04:39:08.007Z,3.75
2022-09-09T04:42:10.402Z,4.38
2022-09-09T04:45:13.838Z,3.30
2022-09-09T04:48:17.324Z,4.05
2022-09-09T04:51:20.585Z,6.22
2022-09-09T04:54:25.484Z,3.45
2022-09-09T04:57:27.838Z,3.40
2022-09-09T05:00:30.190Z,4.38
2022-09-09T05:03:32.612Z,3.90
2022-09-09T05:06:35.186Z,3.40
2022-09-09T05:09:37.736Z,4.47
2022-09-09T05:12:40.260Z,2.95
2022-09-09T05:15:44.274Z,3.92
2022-09-09T05:18:51.692Z,4.25
2022-09-09T05:21:54.452Z,3.80
2022-09-09T05:25:02.693Z,4.38
2022-09-09T05:28:04.905Z,4.80
2022-09-09T05:31:10.185Z,3.40
2022-09-09T05:34:12.740Z,6.25
2022-09-09T05:37:15.257Z,4.88
2022-09-09T05:40:18.443Z,4.80
2022-09-09T05:43:21.420Z,3.65
2022-09-09T05:46:26.190Z,3.17
2022-09-09T05:49:29.683Z,3.72
2022-09-09T05:52:32.985Z,5.70
2022-09-09T05:55:35.318Z,3.55
2022-09-09T05:58:38.424Z,2.85
2022-09-09T06:01:44.147Z,3.60
2022-09-09T06:04:58.645Z,3.38
2022-09-09T06:08:02.666Z,3.22
2022-09-09T06:11:10.180Z,3.50
2022-09-09T06:14:13.367Z,4.00
2022-09-09T06:17:16.373Z,3.30
2022-09-09T06:20:18.513Z,3.20
2022-09-09T06:23:21.549Z,4.50
2022-09-09T06:26:26.714Z,4.07
2022-09-09T06:29:29.428Z,3.33
2022-09-09T06:32:34.215Z,3.35
2022-09-09T06:35:36.915Z,3.33
2022-09-09T06:38:39.783Z,3.15
2022-09-09T06:41:43.906Z,3.78
2022-09-09T06:45:04.808Z,3.38
2022-09-09T06:48:12.292Z,4.40
2022-09-09T06:51:15.597Z,2.78
2022-09-09T06:54:19.087Z,3.10
2022-09-09T06:57:36.395Z,3.03
2022-09-09T07:00:41.745Z,2.88
2022-09-09T07:03:47.270Z,4.53
2022-09-09T07:06:49.529Z,2.90
2022-09-09T07:09:56.676Z,3.67
2022-09-09T07:12:58.990Z,6.55
2022-09-09T07:16:09.859Z,3.85
2022-09-09T07:19:12.780Z,5.18
2022-09-09T07:22:16.029Z,3.00
2022-09-09T07:25:19.523Z,6.32
2022-09-09T07:28:23.867Z,5.07
2022-09-09T07:31:31.840Z,5.28
2022-09-09T07:34:34.879Z,6.10
2022-09-09T07:37:38.699Z,5.72
2022-09-09T07:40:41.061Z,4.50
2022-09-09T07:43:44.806Z,4.22
2022-09-09T07:46:47.490Z,3.42
2022-09-09T07:49:54.214Z,3.72
2022-09-09T07:53:01.728Z,3.83
2022-09-09T07:56:06.311Z,5.90
2022-09-09T07:59:10.809Z,5.07
2022-09-09T08:02:14.527Z,3.00
2022-09-09T08:05:17.818Z,4.50
2022-09-09T08:08:20.977Z,3.85
2022-09-09T08:11:25.495Z,3.95
2022-09-09T08:14:27.894Z,3.97
2022-09-09T08:17:32.562Z,4.63
2022-09-09T08:20:39.045Z,3.75
2022-09-09T08:23:43.545Z,5.45
2022-09-09T08:26:50.368Z,3.80
2022-09-09T08:29:56.878Z,5.25
2022-09-09T08:33:01.159Z,3.08
2022-09-09T08:36:04.108Z,4.13
2022-09-09T08:39:08.122Z,5.70
2022-09-09T08:42:29.909Z,6.00
2022-09-09T08:45:44.761Z,3.53
2022-09-09T08:49:12.933Z,4.32
2022-09-09T08:52:24.492Z,3.97
2022-09-09T08:55:29.802Z,3.30
2022-09-09T08:58:35.950Z,5.95
2022-09-09T09:01:54.224Z,3.05
2022-09-09T09:05:15.209Z,3.28
2022-09-09T09:08:31.287Z,3.63
2022-09-09T09:11:39.735Z,3.03
2022-09-09T09:14:44.625Z,3.70
2022-09-09T09:17:47.798Z,3.00
2022-09-09T09:21:13.063Z,4.43
2022-09-09T09:24:24.764Z,5.43
2022-09-09T09:27:53.537Z,4.45
2022-09-09T09:30:56.169Z,2.90
2022-09-09T09:33:59.919Z,3.97
2022-09-09T09:37:21.522Z,5.00
2022-09-09T09:40:24.506Z,5.78
2022-09-09T09:43:40.788Z,4.72
2022-09-09T09:46:47.034Z,3.42
2022-09-09T09:50:01.021Z,3.60
2022-09-09T09:53:22.795Z,4.30
2022-09-09T09:56:30.275Z,4.03
2022-09-09T09:59:39.557Z,3.67
2022-09-09T10:02:48.410Z,2.85
2022-09-09T10:05:57.363Z,3.30
2022-09-09T10:09:00.343Z,3.67
2022-09-09T10:12:43.331Z,3.55
2022-09-09T10:16:15.993Z,3.70
2022-09-09T10:19:32.171Z,4.95
2022-09-09T10:22:35.290Z,3.47
2022-09-09T10:26:03.403Z,2.75
2022-09-09T10:29:14.705Z,6.15
2022-09-09T10:32:52.313Z,4.05
2022-09-09T10:36:20.736Z,2.85
2022-09-09T10:39:40.631Z,3.05
2022-09-09T10:42:45.221Z,2.70
2022-09-09T10:46:05.601Z,3.45
2022-09-09T10:49:28.784Z,3.80
2022-09-09T10:52:54.464Z,3.05
2022-09-09T10:56:07.066Z,2.40
2022-09-09T10:59:17.992Z,3.60
2022-09-09T11:02:30.654Z,3.08
2022-09-09T11:05:42.523Z,3.38
2022-09-09T11:08:44.762Z,2.72
2022-09-09T11:11:58.348Z,2.70
2022-09-09T11:15:10.408Z,2.75
2022-09-09T11:18:18.857Z,2.05
2022-09-09T11:21:31.121Z,2.83
2022-09-09T11:24:41.821Z,3.38
2022-09-09T11:28:23.506Z,2.17
2022-09-09T11:31:50.912Z,2.40
2022-09-09T11:35:16.182Z,3.08
2022-09-09T11:38:28.923Z,2.38
2022-09-09T11:41:38.312Z,3.20
2022-09-09T11:44:41.463Z,2.95
2022-09-09T11:47:53.996Z,2.67
2022-09-09T11:51:10.212Z,2.92
2022-09-09T11:54:31.255Z,2.20
2022-09-09T11:57:36.962Z,3.67
2022-09-09T12:00:43.602Z,3.70
2022-09-09T12:03:51.322Z,3.05
2022-09-09T12:07:00.189Z,2.22
2022-09-09T12:10:08.134Z,2.20
2022-09-09T12:13:20.753Z,2.20
2022-09-09T12:16:49.182Z,2.55
2022-09-09T12:20:09.554Z,5.25
2022-09-09T12:23:53.375Z,2.85
2022-09-09T12:27:00.794Z,2.80
2022-09-09T12:30:12.573Z,2.97
2022-09-09T12:33:20.184Z,2.38
2022-09-09T12:36:31.782Z,2.40
2022-09-09T12:39:43.664Z,2.00
2022-09-09T12:42:45.884Z,3.90
2022-09-09T12:45:49.950Z,2.25
2022-09-09T12:48:52.151Z,2.33
2022-09-09T12:51:54.873Z,2.45
2022-09-09T12:54:59.281Z,2.85
2022-09-09T12:58:05.685Z,2.95
2022-09-09T13:01:22.893Z,3.20
2022-09-09T13:04:25.289Z,2.75
2022-09-09T13:07:27.495Z,3.42
2022-09-09T13:10:37.027Z,2.78
2022-09-09T13:13:52.786Z,2.60
2022-09-09T13:17:00.501Z,3.63
2022-09-09T13:20:03.790Z,3.38
2022-09-09T13:23:05.928Z,3.28
2022-09-09T13:26:26.911Z,4.00
2022-09-09T13:29:30.646Z,3.53
2022-09-09T13:32:32.784Z,3.17
2022-09-09T13:35:35.710Z,2.67
2022-09-09T13:39:00.746Z,4.07
2022-09-09T13:42:04.323Z,2.33
2022-09-09T13:45:07.234Z,3.00
2022-09-09T13:48:10.978Z,3.53
2022-09-09T13:51:33.393Z,4.13
2022-09-09T13:54:36.445Z,2.80
2022-09-09T13:57:38.604Z,2.30
2022-09-09T14:00:40.860Z,2.10
2022-09-09T14:03:43.646Z,2.78
2022-09-09T14:06:45.792Z,2.30
2022-09-09T14:09:52.900Z,2.80
2022-09-09T14:12:54.991Z,2.60
2022-09-09T14:15:57.656Z,2.63
2022-09-09T14:19:00.353Z,2.70
2022-09-09T14:22:02.636Z,2.30
2022-09-09T14:25:05.334Z,2.65
2022-09-09T14:28:10.253Z,2.35
2022-09-09T14:31:14.480Z,2.88
2022-09-09T14:34:16.920Z,2.70
2022-09-09T14:37:20.031Z,4.00
2022-09-09T14:40:22.602Z,2.47
2022-09-09T14:43:25.198Z,2.53
2022-09-09T14:46:27.824Z,2.35
2022-09-09T14:49:30.077Z,2.13
2022-09-09T14:52:32.523Z,3.28
2022-09-09T14:55:34.841Z,2.08
2022-09-09T14:58:39.051Z,2.55
2022-09-09T15:01:41.498Z,2.00
2022-09-09T15:04:43.872Z,4.05
2022-09-09T15:07:46.376Z,1.80
2022-09-09T15:10:48.466Z,2.72
2022-09-09T15:13:55.777Z,2.72
2022-09-09T15:16:58.017Z,2.70
2022-09-09T15:20:06.734Z,4.03
2022-09-09T15:23:10.159Z,2.83
2022-09-09T15:26:15.179Z,2.85
2022-09-09T15:29:17.368Z,3.72
2022-09-09T15:32:19.954Z,2.70
2022-09-09T15:35:24.515Z,3.58
2022-09-09T15:38:26.672Z,3.97
2022-09-09T15:41:29.958Z,2.97
2022-09-09T15:44:40.127Z,3.95
2022-09-09T15:47:42.260Z,3.65
2022-09-09T15:50:44.400Z,4.55
2022-09-09T15:53:46.572Z,3.28
2022-09-09T15:56:58.191Z,3.60
2022-09-09T16:00:00.888Z,4.50
2022-09-09T16:03:03.197Z,4.55
2022-09-09T16:06:06.698Z,3.83
2022-09-09T16:09:09.122Z,2.80
2022-09-09T16:12:13.213Z,4.78
2022-09-09T16:15:15.401Z,2.95
2022-09-09T16:18:19.418Z,2.70
2022-09-09T16:21:25.805Z,3.15
2022-09-09T16:24:28.369Z,2.28
2022-09-09T16:27:30.647Z,2.28
2022-09-09T16:30:33.488Z,2.22
2022-09-09T16:33:35.866Z,3.10
2022-09-09T16:36:40.234Z,2.13
2022-09-09T16:39:42.353Z,3.63
2022-09-09T16:42:44.462Z,3.45
2022-09-09T16:45:46.610Z,2.00
2022-09-09T16:48:50.366Z,2.25
2022-09-09T16:51:55.626Z,2.25
2022-09-09T16:54:57.754Z,1.95
2022-09-09T16:57:59.920Z,2.20
2022-09-09T17:01:04.218Z,2.92
2022-09-09T17:04:12.558Z,2.13
2022-09-09T17:07:14.812Z,4.13
2022-09-09T17:10:17.011Z,2.42
2022-09-09T17:13:22.163Z,1.70
2022-09-09T17:16:27.634Z,2.40
2022-09-09T17:19:29.919Z,3.35
2022-09-09T17:22:32.099Z,2.80
2022-09-09T17:25:34.923Z,2.35
2022-09-09T17:28:39.585Z,2.15
2022-09-09T17:31:42.600Z,2.65
2022-09-09T17:34:44.795Z,1.75
2022-09-09T17:37:46.923Z,2.10
2022-09-09T17:40:49.244Z,2.13
2022-09-09T17:43:52.629Z,2.88
2022-09-09T17:46:55.646Z,1.75
2022-09-09T17:49:58.199Z,1.85
2022-09-09T17:53:00.345Z,2.78
2022-09-09T17:56:07.364Z,2.33
2022-09-09T17:59:12.336Z,2.10
2022-09-09T18:02:14.801Z,2.60
2022-09-09T18:05:17.024Z,2.67
2022-09-09T18:08:19.616Z,3.25
2022-09-09T18:11:23.887Z,2.80
2022-09-09T18:14:31.161Z,4.10
2022-09-09T18:17:33.359Z,2.53
2022-09-09T18:20:35.498Z,3.60
2022-09-09T18:23:40.410Z,3.20
2022-09-09T18:26:43.177Z,2.50
2022-09-09T18:29:45.460Z,2.30
2022-09-09T18:32:50.186Z,3.40
2022-09-09T18:35:52.458Z,2.40
2022-09-09T18:38:56.814Z,2.28
2022-09-09T18:42:01.608Z,2.72
2022-09-09T18:45:04.050Z,3.10
2022-09-09T18:48:06.254Z,2.90
2022-09-09T18:51:10.664Z,2.80
2022-09-09T18:54:23.133Z,3.03
2022-09-09T18:57:25.354Z,2.55
2022-09-09T19:00:28.380Z,2.15
2022-09-09T19:03:31.495Z,2.50
2022-09-09T19:06:38.030Z,3.90
2022-09-09T19:09:40.365Z,2.60
2022-09-09T19:12:42.951Z,1.90
2022-09-09T19:15:45.115Z,2.63
2022-09-09T19:18:48.362Z,2.90
2022-09-09T19:21:51.782Z,2.20
2022-09-09T19:24:53.978Z,2.47
2022-09-09T19:27:56.199Z,3.05
2022-09-09T19:31:09.774Z,2.10
2022-09-09T19:34:12.261Z,2.42
2022-09-09T19:37:17.764Z,2.30
2022-09-09T19:40:22.369Z,2.22
2022-09-09T19:43:25.307Z,2.45
2022-09-09T19:46:31.490Z,2.38
2022-09-09T19:49:34.281Z,1.80
2022-09-09T19:52:36.426Z,2.00
2022-09-09T19:55:41.281Z,1.80
2022-09-09T19:58:46.121Z,1.83
2022-09-09T20:01:48.551Z,2.35
2022-09-09T20:04:50.824Z,1.88
2022-09-09T20:07:53.117Z,2.30
2022-09-09T20:10:55.725Z,2.50
2022-09-09T20:13:58.007Z,2.60
2022-09-09T20:17:00.145Z,1.95
2022-09-09T20:20:04.064Z,2.70
2022-09-09T20:23:06.255Z,2.88
2022-09-09T20:26:11.208Z,3.80
2022-09-09T20:29:16.457Z,2.65
2022-09-09T20:32:18.978Z,1.70
2022-09-09T20:35:21.578Z,2.00
2022-09-09T20:38:23.698Z,2.50
2022-09-09T20:41:31.667Z,2.50
2022-09-09T20:44:34.114Z,2.53
2022-09-09T20:47:36.186Z,2.88
2022-09-09T20:50:39.465Z,2.83
2022-09-09T20:53:41.750Z,2.78
2022-09-09T20:56:45.228Z,2.17
2022-09-09T20:59:51.074Z,1.50
2022-09-09T21:02:53.254Z,1.88
2022-09-09T21:05:55.419Z,3.50
2022-09-09T21:08:57.600Z,1.90
2022-09-09T21:11:59.791Z,2.03
2022-09-09T21:15:01.950Z,2.00
2022-09-09T21:18:04.234Z,1.88
2022-09-09T21:21:07.685Z,3.10
2022-09-09T21:24:09.941Z,3.22
2022-09-09T21:27:12.143Z,2.30
2022-09-09T21:30:14.502Z,2.55
2022-09-09T21:33:18.253Z,2.63
2022-09-09T21:36:20.527Z,2.22
2022-09-09T21:39:22.756Z,1.90
2022-09-09T21:42:24.887Z,2.20
2022-09-09T21:45:28.220Z,2.40
2022-09-09T21:48:31.603Z,2.20
2022-09-09T21:51:33.781Z,2.42
2022-09-09T21:54:38.296Z,2.53
2022-09-09T21:57:40.495Z,2.33
2022-09-09T22:00:45.781Z,2.20
2022-09-09T22:03:47.940Z,1.80
2022-09-09T22:06:50.515Z,2.65
2022-09-09T22:09:52.592Z,2.00
2022-09-09T22:12:54.684Z,2.42
2022-09-09T22:15:58.347Z,2.47
2022-09-09T22:19:01.950Z,3.15
2022-09-09T22:22:04.062Z,2.72
2022-09-09T22:25:07.559Z,2.63
2022-09-09T22:28:10.092Z,2.47
2022-09-09T22:31:12.237Z,1.90
2022-09-09T22:34:14.534Z,3.17
2022-09-09T22:37:16.917Z,2.50
2022-09-09T22:40:19.160Z,2.58
2022-09-09T22:43:22.452Z,2.60
2022-09-09T22:46:24.592Z,3.15
2022-09-09T22:49:27.245Z,2.72
2022-09-09T22:52:31.934Z,2.58
2022-09-09T22:55:34.565Z,3.53
2022-09-09T22:58:37.316Z,2.35
2022-09-09T23:01:39.669Z,2.58
2022-09-09T23:04:41.836Z,3.97
2022-09-09T23:07:44.013Z,3.17
2022-09-09T23:10:46.151Z,2.28
2022-09-09T23:13:52.683Z,4.10
2022-09-09T23:16:55.609Z,4.15
2022-09-09T23:19:58.190Z,3.15
2022-09-09T23:23:01.344Z,2.22
2022-09-09T23:26:05.721Z,3.03
2022-09-09T23:29:08.235Z,2.08
2022-09-09T23:32:10.527Z,2.42
2022-09-09T23:35:13.132Z,2.45
2022-09-09T23:38:15.537Z,3.80
2022-09-09T23:41:21.278Z,2.63
2022-09-09T23:44:23.513Z,2.60
2022-09-09T23:47:25.710Z,3.78
2022-09-09T23:50:28.020Z,2.08
2022-09-09T23:53:30.197Z,2.28
2022-09-09T23:56:37.171Z,2.20
2022-09-09T23:59:39.898Z,2.30
